Time;durP1;ratioP1;P1;durP2;ratioP2;P2;SDS_P1;SDS_P2;PMS_P1;PMS_P2;Temp;Humidity;BMP_temperature;BMP_pressure;BME280_temperature;BME280_humidity;BME280_pressure;Samples;Min_cycle;Max_cycle;Signal;HPM_P1;HPM_P2
2024/04/18 00:01:58;;;;;;;5.60;5.10;;;;;;;;;;11009616;26;20053;-57
2024/04/18 00:07:01;;;;;;;6.07;5.45;;;;;;;;;;11008180;26;20044;-59
2024/04/18 00:12:02;;;;;;;6.20;5.60;;;;;;;;;;11004921;26;20031;-58
2024/04/18 00:17:17;;;;;;;6.05;5.50;;;;;;;;;;11007418;26;20043;-58
2024/04/18 00:22:20;;;;;;;6.10;5.60;;;;;;;;;;11009831;26;20036;-58
2024/04/18 00:27:34;;;;;;;7.78;6.53;;;;;;;;;;11004221;26;20027;-57
2024/04/18 00:32:34;;;;;;;8.63;7.35;;;;;;;;;;11001562;26;20004;-58
2024/04/18 00:38:00;;;;;;;10.18;8.55;;;;;;;;;;11002566;26;20000;-58
2024/04/18 00:43:12;;;;;;;10.18;9.25;;;;;;;;;;10990211;26;20030;-58
2024/04/18 00:48:13;;;;;;;10.00;9.10;;;;;;;;;;11005546;26;20035;-58
2024/04/18 00:53:17;;;;;;;;;;;;;;;;;;11000927;26;20031;-58
2024/04/18 00:58:25;;;;;;;9.77;8.77;;;;;;;;;;11010099;26;19957;-57
2024/04/18 01:03:46;;;;;;;9.85;8.85;;;;;;;;;;11002102;26;20589;-58
2024/04/18 01:09:07;;;;;;;10.10;8.98;;;;;;;;;;11008831;26;20028;-58
2024/04/18 01:14:13;;;;;;;9.98;8.98;;;;;;;;;;11014942;26;20032;-58
2024/04/18 01:19:33;;;;;;;9.90;8.90;;;;;;;;;;11012802;26;20598;-58
2024/04/18 01:24:33;;;;;;;8.93;8.02;;;;;;;;;;11014072;26;20377;-58
2024/04/18 01:29:36;;;;;;;11.27;8.18;;;;;;;;;;10992086;26;20041;-58
2024/04/18 01:34:39;;;;;;;9.32;8.38;;;;;;;;;;11010148;26;20031;-58
2024/04/18 01:39:49;;;;;;;9.70;8.48;;;;;;;;;;11009176;26;20028;-58
2024/04/18 01:44:52;;;;;;;9.30;8.40;;;;;;;;;;11011789;26;20044;-58
2024/04/18 01:50:09;;;;;;;9.55;8.60;;;;;;;;;;11015584;26;20079;-58
2024/04/18 01:55:09;;;;;;;9.30;8.40;;;;;;;;;;11013786;26;20032;-55
2024/04/18 02:00:13;;;;;;;10.70;9.35;;;;;;;;;;11014346;26;20032;-59
2024/04/18 02:05:13;;;;;;;11.25;10.07;;;;;;;;;;11012390;26;20528;-58
2024/04/18 02:10:17;;;;;;;11.23;10.13;;;;;;;;;;11004683;26;20031;-58
2024/04/18 02:15:35;;;;;;;9.93;8.93;;;;;;;;;;11011638;26;20033;-56
2024/04/18 02:20:45;;;;;;;11.48;10.30;;;;;;;;;;11010080;26;20063;-58
2024/04/18 02:25:51;;;;;;;9.93;8.93;;;;;;;;;;11010432;26;20476;-57
2024/04/18 02:30:54;;;;;;;10.32;9.32;;;;;;;;;;11009526;26;20027;-57
2024/04/18 02:36:15;;;;;;;11.60;10.40;;;;;;;;;;11012510;26;20376;-58
2024/04/18 02:41:15;;;;;;;10.80;9.70;;;;;;;;;;11006312;26;20047;-58
2024/04/18 02:46:24;;;;;;;10.23;9.23;;;;;;;;;;11006336;26;20040;-58
2024/04/18 02:51:43;;;;;;;9.82;8.90;;;;;;;;;;11012534;26;20027;-58
2024/04/18 02:56:44;;;;;;;10.05;9.15;;;;;;;;;;11010695;26;20027;-58
2024/04/18 03:01:47;;;;;;;10.30;9.30;;;;;;;;;;11009081;26;20035;-58
2024/04/18 03:06:47;;;;;;;10.23;9.23;;;;;;;;;;11007015;26;20036;-59
2024/04/18 03:11:48;;;;;;;10.82;9.82;;;;;;;;;;11007316;26;20027;-58
2024/04/18 03:16:51;;;;;;;9.65;8.73;;;;;;;;;;11007782;26;20032;-57
2024/04/18 03:21:51;;;;;;;9.98;9.07;;;;;;;;;;11011506;26;20397;-59
2024/04/18 03:26:54;;;;;;;9.23;8.32;;;;;;;;;;11009647;26;20039;-58
2024/04/18 03:31:57;;;;;;;11.13;9.95;;;;;;;;;;11010427;26;20037;-57
2024/04/18 03:37:15;;;;;;;10.60;9.60;;;;;;;;;;11008424;26;20035;-57
2024/04/18 03:42:16;;;;;;;11.98;9.27;;;;;;;;;;11007010;26;20039;-58
2024/04/18 03:47:28;;;;;;;9.68;8.80;;;;;;;;;;11007279;26;20600;-58
2024/04/18 03:52:40;;;;;;;10.25;9.32;;;;;;;;;;11008101;26;20043;-58
2024/04/18 03:57:59;;;;;;;10.35;9.45;;;;;;;;;;11011098;26;20028;-57
2024/04/18 04:03:21;;;;;;;9.80;8.90;;;;;;;;;;11008183;26;20035;-57
2024/04/18 04:08:21;;;;;;;10.25;9.32;;;;;;;;;;11007904;26;20031;-58
2024/04/18 04:13:41;;;;;;;10.73;9.73;;;;;;;;;;11006913;26;20044;-57
2024/04/18 04:18:54;;;;;;;9.90;9.00;;;;;;;;;;11008356;26;20039;-58
2024/04/18 04:24:14;;;;;;;10.18;9.13;;;;;;;;;;11007610;26;20028;-57
2024/04/18 04:29:23;;;;;;;9.32;8.43;;;;;;;;;;11008783;26;20565;-58
2024/04/18 04:34:26;;;;;;;9.13;8.32;;;;;;;;;;11008130;26;20044;-58
2024/04/18 04:39:26;;;;;;;9.52;8.63;;;;;;;;;;11008084;26;20493;-59
2024/04/18 04:44:47;;;;;;;10.10;9.10;;;;;;;;;;11005960;26;20043;-58
2024/04/18 04:50:05;;;;;;;8.68;7.85;;;;;;;;;;11012865;26;20039;-57
2024/04/18 04:55:08;;;;;;;8.95;8.15;;;;;;;;;;11009405;26;20035;-59
2024/04/18 05:00:09;;;;;;;8.70;7.90;;;;;;;;;;10999929;26;20032;-58
2024/04/18 05:05:30;;;;;;;9.32;8.43;;;;;;;;;;10987417;26;19999;-58
2024/04/18 05:10:40;;;;;;;9.48;8.48;;;;;;;;;;11006093;26;20030;-57
2024/04/18 05:15:40;;;;;;;9.35;7.20;;;;;;;;;;10999249;26;20507;-58
2024/04/18 05:21:03;;;;;;;8.85;7.93;;;;;;;;;;10987705;26;20326;-57
2024/04/18 05:26:29;;;;;;;7.20;6.50;;;;;;;;;;11021855;26;20024;-57
2024/04/18 05:31:29;;;;;;;9.38;8.48;;;;;;;;;;11021386;26;20389;-58
2024/04/18 05:36:32;;;;;;;12.40;9.07;;;;;;;;;;11012328;26;20039;-58
2024/04/18 05:41:37;;;;;;;13.07;10.80;;;;;;;;;;11009866;26;20051;-58
2024/04/18 05:46:57;;;;;;;7.78;7.07;;;;;;;;;;11004951;26;20027;-58
2024/04/18 05:52:00;;;;;;;7.78;7.07;;;;;;;;;;10998657;26;20046;-58
2024/04/18 05:57:00;;;;;;;7.30;6.60;;;;;;;;;;10996181;26;19999;-59
2024/04/18 06:02:21;;;;;;;8.45;7.60;;;;;;;;;;11006631;26;20032;-58
2024/04/18 06:07:24;;;;;;;8.60;7.32;;;;;;;;;;11002985;26;20040;-58
2024/04/18 06:12:24;;;;;;;9.07;8.27;;;;;;;;;;11000050;26;20015;-58
2024/04/18 06:17:24;;;;;;;8.18;7.32;;;;;;;;;;10997522;26;20014;-58
2024/04/18 06:22:27;;;;;;;8.18;7.47;;;;;;;;;;10994512;26;20014;-58
2024/04/18 06:27:46;;;;;;;8.45;7.75;;;;;;;;;;11012432;26;20027;-57
2024/04/18 06:32:47;;;;;;;9.07;8.18;;;;;;;;;;11001392;26;20032;-60
2024/04/18 06:37:50;;;;;;;7.97;7.28;;;;;;;;;;11001020;26;20039;-58
2024/04/18 06:42:50;;;;;;;7.60;7.00;;;;;;;;;;11008661;26;20487;-57
2024/04/18 06:47:51;;;;;;;7.70;6.95;;;;;;;;;;11005899;26;20474;-58
2024/04/18 06:52:54;;;;;;;8.23;7.38;;;;;;;;;;11005607;26;20036;-58
2024/04/18 06:57:55;;;;;;;9.38;8.48;;;;;;;;;;10995460;26;20038;-58
2024/04/18 07:02:56;;;;;;;8.98;8.27;;;;;;;;;;11008924;26;20039;-58
2024/04/18 07:08:34;;;;;;;10.05;9.05;;;;;;;;;;10951287;26;20387;-58
2024/04/18 07:13:37;;;;;;;9.77;8.88;;;;;;;;;;10992099;26;20031;-58
2024/04/18 07:18:57;;;;;;;9.50;8.70;;;;;;;;;;11004959;26;20489;-58
2024/04/18 07:24:00;;;;;;;9.38;8.25;;;;;;;;;;11001965;26;20042;-59
2024/04/18 07:29:13;;;;;;;9.38;8.57;;;;;;;;;;10999143;26;20476;-58
2024/04/18 07:34:13;;;;;;;9.85;8.82;;;;;;;;;;10994858;26;20028;-58
2024/04/18 07:39:18;;;;;;;12.38;11.13;;;;;;;;;;11008121;26;20035;-59
2024/04/18 07:44:19;;;;;;;12.00;10.90;;;;;;;;;;11006060;26;20027;-58
2024/04/18 07:49:23;;;;;;;12.07;9.88;;;;;;;;;;11008089;26;20035;-57
2024/04/18 07:54:26;;;;;;;10.25;9.35;;;;;;;;;;11007449;26;20032;-59
2024/04/18 07:59:27;;;;;;;10.63;9.57;;;;;;;;;;11010654;26;20027;-60
2024/04/18 08:04:28;;;;;;;9.82;9.02;;;;;;;;;;11008052;26;20044;-60
2024/04/18 08:09:51;;;;;;;9.13;8.30;;;;;;;;;;11009645;26;20028;-59
2024/04/18 08:14:56;;;;;;;10.05;9.15;;;;;;;;;;11005844;26;20036;-58
2024/04/18 08:20:04;;;;;;;8.98;8.07;;;;;;;;;;11004423;26;20140;-58
2024/04/18 08:25:07;;;;;;;9.80;8.73;;;;;;;;;;11011857;26;20047;-59
2024/04/18 08:30:08;;;;;;;9.00;8.18;;;;;;;;;;11011015;26;20028;-59
2024/04/18 08:35:08;;;;;;;9.38;8.57;;;;;;;;;;11002566;26;20044;-58
2024/04/18 08:40:12;;;;;;;7.50;6.80;;;;;;;;;;11015901;26;20028;-59
2024/04/18 08:45:16;;;;;;;10.67;9.43;;;;;;;;;;11001562;26;20480;-59
2024/04/18 08:50:17;;;;;;;8.77;6.72;;;;;;;;;;11006286;26;20413;-58
2024/04/18 08:55:20;;;;;;;10.10;9.10;;;;;;;;;;11002456;26;20036;-58
2024/04/18 09:00:20;;;;;;;8.50;7.80;;;;;;;;;;11014446;26;20584;-59
2024/04/18 09:05:20;;;;;;;9.10;8.30;;;;;;;;;;11010630;26;20036;-59
2024/04/18 09:10:24;;;;;;;8.95;8.05;;;;;;;;;;11008179;26;20036;-59
2024/04/18 09:15:24;;;;;;;9.52;8.73;;;;;;;;;;11010548;26;20035;-59
2024/04/18 09:20:24;;;;;;;12.25;7.57;;;;;;;;;;11012193;26;20028;-59
2024/04/18 09:25:27;;;;;;;7.68;6.85;;;;;;;;;;11013852;26;20031;-59
2024/04/18 09:30:28;;;;;;;7.25;6.63;;;;;;;;;;11017192;26;20039;-59
2024/04/18 09:35:30;;;;;;;4.82;4.32;;;;;;;;;;11014311;26;20031;-60
2024/04/18 09:40:34;;;;;;;7.05;6.45;;;;;;;;;;11017454;26;20035;-59
2024/04/18 09:45:38;;;;;;;6.70;6.03;;;;;;;;;;11012342;26;20036;-59
2024/04/18 09:50:39;;;;;;;6.32;5.60;;;;;;;;;;11009024;26;20036;-59
2024/04/18 09:55:42;;;;;;;7.22;5.93;;;;;;;;;;11012725;26;20389;-59
2024/04/18 10:00:43;;;;;;;5.75;5.25;;;;;;;;;;11012897;26;20036;-59
2024/04/18 10:05:47;;;;;;;9.60;5.85;;;;;;;;;;11012566;26;20490;-59
2024/04/18 10:10:51;;;;;;;7.28;5.53;;;;;;;;;;11014791;26;20082;-58
2024/04/18 10:15:51;;;;;;;9.15;7.25;;;;;;;;;;11007258;26;20039;-58
2024/04/18 10:20:55;;;;;;;11.55;8.45;;;;;;;;;;11007235;26;20035;-59
2024/04/18 10:26:02;;;;;;;8.30;5.80;;;;;;;;;;11010791;26;20040;-58
2024/04/18 10:31:06;;;;;;;8.63;5.88;;;;;;;;;;11009899;26;20036;-58
2024/04/18 10:36:09;;;;;;;4.88;4.47;;;;;;;;;;11011515;26;20040;-59
2024/04/18 10:41:14;;;;;;;5.30;4.82;;;;;;;;;;11009148;26;20032;-59
2024/04/18 10:46:14;;;;;;;4.60;4.23;;;;;;;;;;11009843;26;20031;-59
2024/04/18 10:51:14;;;;;;;8.30;5.70;;;;;;;;;;11008849;26;20027;-59
2024/04/18 10:56:17;;;;;;;5.28;4.60;;;;;;;;;;11013368;26;20023;-59
2024/04/18 11:01:20;;;;;;;5.30;4.40;;;;;;;;;;11010863;26;20036;-58
2024/04/18 11:06:20;;;;;;;5.32;4.82;;;;;;;;;;11010652;26;20048;-58
2024/04/18 11:11:27;;;;;;;4.90;4.38;;;;;;;;;;11006416;26;20043;-59
2024/04/18 11:16:27;;;;;;;4.35;4.05;;;;;;;;;;11009357;26;20035;-58
2024/04/18 11:21:27;;;;;;;4.70;4.05;;;;;;;;;;11010886;26;20047;-59
2024/04/18 11:26:31;;;;;;;5.10;4.47;;;;;;;;;;11011847;26;20035;-60
2024/04/18 11:31:33;;;;;;;4.80;4.40;;;;;;;;;;11008669;26;20044;-59
2024/04/18 11:36:33;;;;;;;4.05;3.65;;;;;;;;;;11008258;26;20032;-59
2024/04/18 11:41:36;;;;;;;5.50;5.00;;;;;;;;;;11006596;26;20035;-59
2024/04/18 11:46:36;;;;;;;5.20;4.70;;;;;;;;;;11010248;26;20091;-59
2024/04/18 11:51:36;;;;;;;5.07;4.22;;;;;;;;;;11009388;26;20043;-59
2024/04/18 11:56:39;;;;;;;3.75;3.45;;;;;;;;;;11009014;26;20043;-59
2024/04/18 12:02:09;;;;;;;4.85;4.45;;;;;;;;;;11001044;26;20485;-59
2024/04/18 12:07:24;;;;;;;5.00;4.53;;;;;;;;;;11010871;26;20070;-58
2024/04/18 12:12:27;;;;;;;5.40;4.90;;;;;;;;;;11010309;26;20044;-58
2024/04/18 12:17:48;;;;;;;5.20;4.38;;;;;;;;;;11005560;26;20023;-59
2024/04/18 12:22:52;;;;;;;7.25;5.30;;;;;;;;;;11006949;26;20325;-57
2024/04/18 12:27:55;;;;;;;4.95;4.55;;;;;;;;;;11005990;26;20552;-59
2024/04/18 12:33:04;;;;;;;6.45;4.43;;;;;;;;;;11005962;26;20381;-59
2024/04/18 12:38:04;;;;;;;5.30;4.85;;;;;;;;;;11005243;26;20031;-59
2024/04/18 12:43:17;;;;;;;4.50;4.10;;;;;;;;;;10990837;26;20469;-57
2024/04/18 12:48:27;;;;;;;4.45;4.05;;;;;;;;;;11007811;26;20036;-59
2024/04/18 12:53:27;;;;;;;4.93;4.00;;;;;;;;;;11008169;26;20052;-59
2024/04/18 12:58:30;;;;;;;4.53;3.95;;;;;;;;;;11005473;26;20028;-59
2024/04/18 13:03:40;;;;;;;4.80;4.40;;;;;;;;;;11006164;26;20044;-58
2024/04/18 13:09:19;;;;;;;5.22;4.70;;;;;;;;;;10923846;26;20032;-58
2024/04/18 13:14:22;;;;;;;5.22;4.47;;;;;;;;;;10991534;26;20496;-58
2024/04/18 13:19:22;;;;;;;4.40;4.00;;;;;;;;;;11013751;26;20040;-58
2024/04/18 13:24:22;;;;;;;6.13;4.97;;;;;;;;;;11011621;26;20043;-57
2024/04/18 13:29:26;;;;;;;6.57;4.03;;;;;;;;;;11010034;26;20031;-57
2024/04/18 13:34:44;;;;;;;5.35;4.82;;;;;;;;;;11013722;26;20023;-57
2024/04/18 13:39:49;;;;;;;6.65;3.72;;;;;;;;;;11015284;26;20035;-57
2024/04/18 13:44:53;;;;;;;8.93;7.57;;;;;;;;;;11009257;26;20039;-58
2024/04/18 13:49:54;;;;;;;12.23;10.93;;;;;;;;;;11011760;26;20122;-58
2024/04/18 13:54:54;;;;;;;4.88;4.38;;;;;;;;;;11014479;26;20027;-58
2024/04/18 14:00:07;;;;;;;5.72;4.43;;;;;;;;;;11010139;26;20082;-57
2024/04/18 14:05:25;;;;;;;5.95;5.00;;;;;;;;;;11009386;26;20023;-57
2024/04/18 14:10:35;;;;;;;5.68;4.35;;;;;;;;;;11012116;26;20059;-58
2024/04/18 14:21:24;;;;;;;11.48;5.60;;;;;;;;;;10961845;26;20111;-58
2024/04/18 14:26:25;;;;;;;10.73;5.22;;;;;;;;;;11015159;26;20039;-59
2024/04/18 14:31:28;;;;;;;4.85;4.45;;;;;;;;;;11013683;26;20028;-59
2024/04/18 14:36:48;;;;;;;4.90;3.58;;;;;;;;;;11010233;26;20023;-57
2024/04/18 14:41:49;;;;;;;5.85;4.63;;;;;;;;;;11005569;26;20039;-57
2024/04/18 14:46:51;;;;;;;8.68;4.35;;;;;;;;;;11009189;26;20028;-58
2024/04/18 14:51:55;;;;;;;5.30;4.15;;;;;;;;;;11013240;26;20484;-58
2024/04/18 14:56:58;;;;;;;4.10;3.20;;;;;;;;;;11011548;26;20046;-59
2024/04/18 15:02:13;;;;;;;4.50;4.05;;;;;;;;;;11007290;26;20473;-58
2024/04/18 15:07:43;;;;;;;5.43;3.78;;;;;;;;;;11011525;26;20035;-58
2024/04/18 15:12:49;;;;;;;5.55;3.60;;;;;;;;;;11009050;26;20504;-58
2024/04/18 15:17:57;;;;;;;5.43;4.25;;;;;;;;;;11007911;26;20027;-58
2024/04/18 15:22:58;;;;;;;7.78;4.00;;;;;;;;;;11005650;26;20043;-60
2024/04/18 15:27:58;;;;;;;4.63;4.22;;;;;;;;;;11011782;26;20028;-57
2024/04/18 15:33:01;;;;;;;11.27;7.22;;;;;;;;;;11007876;26;20038;-59
2024/04/18 15:38:01;;;;;;;6.40;4.32;;;;;;;;;;11001581;26;19999;-59
2024/04/18 15:43:04;;;;;;;4.60;4.22;;;;;;;;;;10998245;26;20013;-58
2024/04/18 15:48:08;;;;;;;4.35;3.95;;;;;;;;;;10999319;26;20018;-60
2024/04/18 15:53:24;;;;;;;9.68;6.55;;;;;;;;;;10993929;26;20521;-56
2024/04/18 15:58:37;;;;;;;5.88;5.35;;;;;;;;;;10999356;26;20028;-57
2024/04/18 16:03:48;;;;;;;11.00;6.75;;;;;;;;;;11005014;26;20475;-59
2024/04/18 16:09:00;;;;;;;6.55;5.85;;;;;;;;;;11003954;26;20100;-57
2024/04/18 16:14:10;;;;;;;4.53;4.13;;;;;;;;;;10997995;26;20028;-58
2024/04/18 16:19:17;;;;;;;5.47;4.68;;;;;;;;;;11005221;26;20493;-58
2024/04/18 16:24:33;;;;;;;5.05;4.65;;;;;;;;;;11005638;26;19999;-56
2024/04/18 16:29:36;;;;;;;4.82;4.43;;;;;;;;;;10988777;26;20014;-57
2024/04/18 16:34:39;;;;;;;5.97;5.45;;;;;;;;;;10990600;26;20000;-57
2024/04/18 16:39:39;;;;;;;9.13;8.13;;;;;;;;;;10985647;26;20008;-57
2024/04/18 16:44:40;;;;;;;18.80;5.88;;;;;;;;;;11009063;26;20014;-59
2024/04/18 16:49:43;;;;;;;8.10;5.63;;;;;;;;;;11010337;26;20028;-57
2024/04/18 16:54:47;;;;;;;5.55;4.70;;;;;;;;;;11005254;26;20371;-57
2024/04/18 17:00:08;;;;;;;5.80;5.28;;;;;;;;;;11002652;26;19999;-58
2024/04/18 17:05:14;;;;;;;6.30;5.72;;;;;;;;;;11005746;26;20457;-54
2024/04/18 17:10:14;;;;;;;6.65;5.75;;;;;;;;;;11004096;26;20036;-55
2024/04/18 17:15:33;;;;;;;5.82;5.22;;;;;;;;;;11013994;26;20035;-57
2024/04/18 17:20:36;;;;;;;6.78;5.88;;;;;;;;;;11009542;26;20739;-58
2024/04/18 17:25:36;;;;;;;6.03;5.43;;;;;;;;;;11004790;26;20003;-57
2024/04/18 17:30:38;;;;;;;9.57;6.60;;;;;;;;;;11012669;26;20031;-56
2024/04/18 17:35:42;;;;;;;6.18;5.57;;;;;;;;;;11014244;26;20031;-57
2024/04/18 17:40:45;;;;;;;10.70;6.43;;;;;;;;;;11013079;26;20031;-57
2024/04/18 17:45:45;;;;;;;6.10;5.50;;;;;;;;;;11012356;26;20497;-58
2024/04/18 17:50:50;;;;;;;6.90;5.32;;;;;;;;;;11011175;26;20369;-56
2024/04/18 17:55:51;;;;;;;8.10;4.88;;;;;;;;;;11005129;26;20485;-58
2024/04/18 18:00:54;;;;;;;8.05;4.72;;;;;;;;;;11009477;26;20032;-56
2024/04/18 18:06:08;;;;;;;5.45;4.95;;;;;;;;;;11004885;26;20035;-58
2024/04/18 18:11:09;;;;;;;5.30;4.80;;;;;;;;;;11011123;26;20407;-57
2024/04/18 18:16:10;;;;;;;8.80;4.35;;;;;;;;;;11007517;26;20023;-56
2024/04/18 18:21:13;;;;;;;5.78;5.28;;;;;;;;;;11007755;26;20468;-56
2024/04/18 18:26:14;;;;;;;10.05;5.95;;;;;;;;;;11006329;26;20035;-56
2024/04/18 18:31:14;;;;;;;8.07;6.10;;;;;;;;;;11014976;26;20043;-57
2024/04/18 18:36:37;;;;;;;9.70;6.40;;;;;;;;;;11000176;26;20488;-57
2024/04/18 18:41:37;;;;;;;8.02;5.30;;;;;;;;;;11002218;26;20480;-56
2024/04/18 18:46:38;;;;;;;9.55;7.63;;;;;;;;;;11003682;26;20039;-55
2024/04/18 18:51:50;;;;;;;9.07;6.80;;;;;;;;;;11006385;26;20056;-56
2024/04/18 18:56:50;;;;;;;7.53;6.82;;;;;;;;;;11003041;26;20047;-55
2024/04/18 19:02:11;;;;;;;8.32;6.53;;;;;;;;;;11005029;26;20051;-56
2024/04/18 19:07:32;;;;;;;8.23;7.35;;;;;;;;;;11002479;26;20031;-58
2024/04/18 19:12:32;;;;;;;11.60;8.85;;;;;;;;;;10999924;26;20028;-56
2024/04/18 19:17:36;;;;;;;11.90;6.93;;;;;;;;;;11007203;26;20035;-57
2024/04/18 19:22:39;;;;;;;7.93;7.22;;;;;;;;;;11003928;26;20028;-58
2024/04/18 19:27:39;;;;;;;9.52;8.32;;;;;;;;;;11007095;26;20039;-58
2024/04/18 19:32:40;;;;;;;8.93;7.75;;;;;;;;;;11005606;26;20004;-58
2024/04/18 19:37:59;;;;;;;10.40;8.20;;;;;;;;;;11000381;26;20043;-57
2024/04/18 19:43:18;;;;;;;8.35;7.55;;;;;;;;;;10998085;26;20031;-55
2024/04/18 19:48:19;;;;;;;10.88;7.80;;;;;;;;;;10999147;26;20028;-57
2024/04/18 19:53:23;;;;;;;8.45;7.60;;;;;;;;;;11005341;26;20032;-58
2024/04/18 19:58:23;;;;;;;8.75;7.63;;;;;;;;;;11003175;26;20066;-52
2024/04/18 20:03:23;;;;;;;8.73;7.18;;;;;;;;;;11007336;26;20361;-55
2024/04/18 20:08:27;;;;;;;7.95;7.15;;;;;;;;;;10994524;26;21409;-57
2024/04/18 20:13:27;;;;;;;7.95;7.07;;;;;;;;;;11003994;26;20010;-57
2024/04/18 20:18:27;;;;;;;7.15;6.55;;;;;;;;;;11000411;26;20101;-57
2024/04/18 20:23:30;;;;;;;7.68;5.53;;;;;;;;;;11002815;26;20031;-57
2024/04/18 20:28:31;;;;;;;6.30;5.80;;;;;;;;;;11000748;26;20385;-55
2024/04/18 20:33:31;;;;;;;7.65;6.68;;;;;;;;;;11001813;26;20043;-58
2024/04/18 20:38:35;;;;;;;5.82;5.30;;;;;;;;;;11001521;26;20477;-57
2024/04/18 20:43:36;;;;;;;5.30;4.82;;;;;;;;;;10994280;26;20031;-58
2024/04/18 20:48:36;;;;;;;5.90;5.00;;;;;;;;;;11001989;26;20035;-57
2024/04/18 20:53:39;;;;;;;5.38;4.88;;;;;;;;;;10997879;26;20051;-56
2024/04/18 20:58:40;;;;;;;5.20;4.72;;;;;;;;;;10992936;26;20461;-57
2024/04/18 21:03:40;;;;;;;8.57;4.78;;;;;;;;;;11001647;26;20024;-58
2024/04/18 21:08:43;;;;;;;5.00;4.60;;;;;;;;;;11001879;26;20067;-57
2024/04/18 21:13:43;;;;;;;5.00;4.50;;;;;;;;;;11003592;26;20040;-57
2024/04/18 21:18:43;;;;;;;5.20;4.70;;;;;;;;;;10990527;26;20362;-57
2024/04/18 21:23:47;;;;;;;5.07;4.45;;;;;;;;;;11002056;26;20044;-58
2024/04/18 21:28:47;;;;;;;6.55;4.70;;;;;;;;;;10999566;26;20031;-57
2024/04/18 21:34:07;;;;;;;4.38;4.05;;;;;;;;;;11006636;26;20047;-56
2024/04/18 21:39:10;;;;;;;4.70;4.30;;;;;;;;;;11004827;26;20035;-58
2024/04/18 21:44:11;;;;;;;5.38;4.93;;;;;;;;;;11010575;26;20036;-57
2024/04/18 21:49:11;;;;;;;5.32;4.88;;;;;;;;;;11011294;26;20051;-58
2024/04/18 21:54:14;;;;;;;5.45;4.95;;;;;;;;;;11013332;26;20035;-59
2024/04/18 21:59:14;;;;;;;5.63;5.18;;;;;;;;;;11010177;26;20508;-57
2024/04/18 22:04:15;;;;;;;6.30;4.95;;;;;;;;;;11005478;26;20037;-55
2024/04/18 22:09:18;;;;;;;6.95;5.13;;;;;;;;;;11011004;26;20031;-58
2024/04/18 22:14:18;;;;;;;5.32;4.88;;;;;;;;;;11013214;26;20035;-57
2024/04/18 22:19:18;;;;;;;4.78;4.38;;;;;;;;;;11010604;26;20035;-58
2024/04/18 22:24:22;;;;;;;4.82;4.25;;;;;;;;;;11012080;26;20032;-57
2024/04/18 22:29:22;;;;;;;4.93;4.15;;;;;;;;;;11012549;26;20031;-58
2024/04/18 22:34:22;;;;;;;4.05;3.65;;;;;;;;;;11007108;26;20056;-60
2024/04/18 22:39:36;;;;;;;4.55;4.15;;;;;;;;;;11011103;26;20023;-56
2024/04/18 22:44:37;;;;;;;4.50;4.10;;;;;;;;;;11010698;26;20358;-60
2024/04/18 22:49:37;;;;;;;4.82;4.43;;;;;;;;;;11012417;26;20506;-57
2024/04/18 22:54:40;;;;;;;4.10;3.75;;;;;;;;;;11015779;26;20039;-57
2024/04/18 22:59:49;;;;;;;4.60;4.18;;;;;;;;;;11010802;26;20033;-58
2024/04/18 23:04:49;;;;;;;5.53;5.03;;;;;;;;;;11013029;26;20031;-57
2024/04/18 23:09:52;;;;;;;4.88;4.47;;;;;;;;;;11009831;26;20040;-57
2024/04/18 23:14:53;;;;;;;6.13;4.45;;;;;;;;;;11011637;26;20043;-57
2024/04/18 23:19:53;;;;;;;5.20;4.70;;;;;;;;;;11008420;26;20031;-57
2024/04/18 23:24:56;;;;;;;5.97;5.35;;;;;;;;;;11010910;26;20032;-57
2024/04/18 23:29:56;;;;;;;5.90;5.28;;;;;;;;;;11010453;26;20031;-55
2024/04/18 23:34:57;;;;;;;5.95;5.32;;;;;;;;;;11008261;26;20035;-56
2024/04/18 23:40:00;;;;;;;5.82;5.10;;;;;;;;;;10988724;26;20035;-56
2024/04/18 23:45:00;;;;;;;5.93;5.13;;;;;;;;;;11012263;26;20031;-55
2024/04/18 23:50:01;;;;;;;5.43;4.93;;;;;;;;;;11009831;26;20047;-56
2024/04/18 23:55:04;;;;;;;5.70;5.15;;;;;;;;;;11008626;26;20051;-56
